sensor_id;sensor_type;location;lat;lon;timestamp;temperature;humidity
66190;DHT22;52992;52.084;5.412;2023-09-30T00:01:11;18.30;60.80
66190;DHT22;52992;52.084;5.412;2023-09-30T00:03:38;18.30;60.90
66190;DHT22;52992;52.084;5.412;2023-09-30T00:06:05;18.30;60.90
66190;DHT22;52992;52.084;5.412;2023-09-30T00:08:32;18.30;60.90
66190;DHT22;52992;52.084;5.412;2023-09-30T00:10:59;18.30;61.00
66190;DHT22;52992;52.084;5.412;2023-09-30T00:13:26;18.30;61.10
66190;DHT22;52992;52.084;5.412;2023-09-30T00:15:53;18.30;61.20
66190;DHT22;52992;52.084;5.412;2023-09-30T00:18:20;18.30;61.10
66190;DHT22;52992;52.084;5.412;2023-09-30T00:20:47;18.40;61.20
66190;DHT22;52992;52.084;5.412;2023-09-30T00:23:14;18.40;61.30
66190;DHT22;52992;52.084;5.412;2023-09-30T00:25:41;18.40;61.20
66190;DHT22;52992;52.084;5.412;2023-09-30T00:28:08;18.40;61.00
66190;DHT22;52992;52.084;5.412;2023-09-30T00:30:35;18.40;61.00
66190;DHT22;52992;52.084;5.412;2023-09-30T00:33:03;18.40;61.00
66190;DHT22;52992;52.084;5.412;2023-09-30T00:35:32;18.40;61.00
66190;DHT22;52992;52.084;5.412;2023-09-30T00:37:59;18.30;61.10
66190;DHT22;52992;52.084;5.412;2023-09-30T00:40:26;18.30;61.20
66190;DHT22;52992;52.084;5.412;2023-09-30T00:42:53;18.30;61.30
66190;DHT22;52992;52.084;5.412;2023-09-30T00:45:20;18.30;61.20
66190;DHT22;52992;52.084;5.412;2023-09-30T00:47:47;18.30;61.20
66190;DHT22;52992;52.084;5.412;2023-09-30T00:50:15;18.30;61.30
66190;DHT22;52992;52.084;5.412;2023-09-30T00:52:43;18.30;61.30
66190;DHT22;52992;52.084;5.412;2023-09-30T00:55:12;18.30;61.40
66190;DHT22;52992;52.084;5.412;2023-09-30T00:57:39;18.40;61.20
66190;DHT22;52992;52.084;5.412;2023-09-30T01:00:07;18.40;61.10
66190;DHT22;52992;52.084;5.412;2023-09-30T01:02:39;18.40;61.50
66190;DHT22;52992;52.084;5.412;2023-09-30T01:05:08;18.40;61.10
66190;DHT22;52992;52.084;5.412;2023-09-30T01:07:36;18.40;61.20
66190;DHT22;52992;52.084;5.412;2023-09-30T01:10:04;18.40;61.20
66190;DHT22;52992;52.084;5.412;2023-09-30T01:12:31;18.40;61.30
66190;DHT22;52992;52.084;5.412;2023-09-30T01:14:59;18.30;61.30
66190;DHT22;52992;52.084;5.412;2023-09-30T01:17:33;18.30;61.40
66190;DHT22;52992;52.084;5.412;2023-09-30T01:20:00;18.30;61.40
66190;DHT22;52992;52.084;5.412;2023-09-30T01:22:28;18.30;61.40
66190;DHT22;52992;52.084;5.412;2023-09-30T01:24:56;18.30;61.40
66190;DHT22;52992;52.084;5.412;2023-09-30T01:27:23;18.30;61.40
66190;DHT22;52992;52.084;5.412;2023-09-30T01:29:52;18.30;61.30
66190;DHT22;52992;52.084;5.412;2023-09-30T01:32:19;18.30;61.20
66190;DHT22;52992;52.084;5.412;2023-09-30T01:34:46;18.30;61.10
66190;DHT22;52992;52.084;5.412;2023-09-30T01:37:13;18.30;61.10
66190;DHT22;52992;52.084;5.412;2023-09-30T01:39:40;18.30;61.10
66190;DHT22;52992;52.084;5.412;2023-09-30T01:42:07;18.30;61.20
66190;DHT22;52992;52.084;5.412;2023-09-30T01:44:34;18.30;61.30
66190;DHT22;52992;52.084;5.412;2023-09-30T01:47:01;18.30;62.00
66190;DHT22;52992;52.084;5.412;2023-09-30T01:49:28;18.30;61.40
66190;DHT22;52992;52.084;5.412;2023-09-30T01:51:55;18.30;61.50
66190;DHT22;52992;52.084;5.412;2023-09-30T01:54:21;18.30;61.50
66190;DHT22;52992;52.084;5.412;2023-09-30T01:56:49;18.40;62.40
66190;DHT22;52992;52.084;5.412;2023-09-30T01:59:16;18.30;61.60
66190;DHT22;52992;52.084;5.412;2023-09-30T02:01:44;18.30;61.70
66190;DHT22;52992;52.084;5.412;2023-09-30T02:04:13;18.30;61.70
66190;DHT22;52992;52.084;5.412;2023-09-30T02:06:42;18.30;61.70
66190;DHT22;52992;52.084;5.412;2023-09-30T02:09:09;18.30;61.80
66190;DHT22;52992;52.084;5.412;2023-09-30T02:11:36;18.30;61.80
66190;DHT22;52992;52.084;5.412;2023-09-30T02:14:04;18.30;61.80
66190;DHT22;52992;52.084;5.412;2023-09-30T02:16:34;18.30;61.90
66190;DHT22;52992;52.084;5.412;2023-09-30T02:19:02;18.30;61.90
66190;DHT22;52992;52.084;5.412;2023-09-30T02:21:29;18.30;61.80
66190;DHT22;52992;52.084;5.412;2023-09-30T02:23:56;18.30;61.80
66190;DHT22;52992;52.084;5.412;2023-09-30T02:26:24;18.20;61.70
66190;DHT22;52992;52.084;5.412;2023-09-30T02:28:52;18.20;61.80
66190;DHT22;52992;52.084;5.412;2023-09-30T02:31:20;18.20;61.80
66190;DHT22;52992;52.084;5.412;2023-09-30T02:33:47;18.20;61.80
66190;DHT22;52992;52.084;5.412;2023-09-30T02:36:14;18.30;61.90
66190;DHT22;52992;52.084;5.412;2023-09-30T02:38:42;18.30;61.90
66190;DHT22;52992;52.084;5.412;2023-09-30T02:41:10;18.30;61.90
66190;DHT22;52992;52.084;5.412;2023-09-30T02:43:37;18.30;61.80
66190;DHT22;52992;52.084;5.412;2023-09-30T02:46:05;18.30;61.80
66190;DHT22;52992;52.084;5.412;2023-09-30T02:48:32;18.30;61.90
66190;DHT22;52992;52.084;5.412;2023-09-30T02:50:59;18.40;62.00
66190;DHT22;52992;52.084;5.412;2023-09-30T02:53:27;18.40;61.90
66190;DHT22;52992;52.084;5.412;2023-09-30T02:55:54;18.40;61.90
66190;DHT22;52992;52.084;5.412;2023-09-30T02:58:24;18.40;61.90
66190;DHT22;52992;52.084;5.412;2023-09-30T03:00:52;18.40;61.80
66190;DHT22;52992;52.084;5.412;2023-09-30T03:03:19;18.40;61.80
66190;DHT22;52992;52.084;5.412;2023-09-30T03:05:47;18.40;61.80
66190;DHT22;52992;52.084;5.412;2023-09-30T03:08:16;18.40;61.90
66190;DHT22;52992;52.084;5.412;2023-09-30T03:10:42;18.40;62.00
66190;DHT22;52992;52.084;5.412;2023-09-30T03:13:09;18.40;62.00
66190;DHT22;52992;52.084;5.412;2023-09-30T03:15:36;18.50;62.00
66190;DHT22;52992;52.084;5.412;2023-09-30T03:18:04;18.40;61.90
66190;DHT22;52992;52.084;5.412;2023-09-30T03:20:31;18.50;62.10
66190;DHT22;52992;52.084;5.412;2023-09-30T03:22:58;18.40;62.10
66190;DHT22;52992;52.084;5.412;2023-09-30T03:25:26;18.40;62.10
66190;DHT22;52992;52.084;5.412;2023-09-30T03:27:53;18.40;62.40
66190;DHT22;52992;52.084;5.412;2023-09-30T03:30:21;18.50;62.20
66190;DHT22;52992;52.084;5.412;2023-09-30T03:32:48;18.40;62.00
66190;DHT22;52992;52.084;5.412;2023-09-30T03:35:16;18.50;62.20
66190;DHT22;52992;52.084;5.412;2023-09-30T03:37:46;18.40;62.20
66190;DHT22;52992;52.084;5.412;2023-09-30T03:40:14;18.50;62.40
66190;DHT22;52992;52.084;5.412;2023-09-30T03:42:46;18.40;62.40
66190;DHT22;52992;52.084;5.412;2023-09-30T03:45:16;18.40;62.40
66190;DHT22;52992;52.084;5.412;2023-09-30T03:47:44;18.40;62.30
66190;DHT22;52992;52.084;5.412;2023-09-30T03:50:12;18.50;62.30
66190;DHT22;52992;52.084;5.412;2023-09-30T03:52:42;18.50;62.20
66190;DHT22;52992;52.084;5.412;2023-09-30T03:55:15;18.50;62.20
66190;DHT22;52992;52.084;5.412;2023-09-30T03:57:43;18.40;62.10
66190;DHT22;52992;52.084;5.412;2023-09-30T04:00:15;18.40;62.00
66190;DHT22;52992;52.084;5.412;2023-09-30T04:02:48;18.40;61.90
66190;DHT22;52992;52.084;5.412;2023-09-30T04:05:16;18.40;61.90
66190;DHT22;52992;52.084;5.412;2023-09-30T04:07:43;18.40;62.00
66190;DHT22;52992;52.084;5.412;2023-09-30T04:10:10;18.40;62.00
66190;DHT22;52992;52.084;5.412;2023-09-30T04:12:37;18.40;62.00
66190;DHT22;52992;52.084;5.412;2023-09-30T04:15:05;18.40;62.00
66190;DHT22;52992;52.084;5.412;2023-09-30T04:17:32;18.40;62.00
66190;DHT22;52992;52.084;5.412;2023-09-30T04:19:59;18.40;62.00
66190;DHT22;52992;52.084;5.412;2023-09-30T04:22:26;18.40;61.90
66190;DHT22;52992;52.084;5.412;2023-09-30T04:24:55;18.40;61.90
66190;DHT22;52992;52.084;5.412;2023-09-30T04:27:22;18.40;61.90
66190;DHT22;52992;52.084;5.412;2023-09-30T04:29:49;18.40;62.00
66190;DHT22;52992;52.084;5.412;2023-09-30T04:32:16;18.40;62.10
66190;DHT22;52992;52.084;5.412;2023-09-30T04:34:43;18.40;62.20
66190;DHT22;52992;52.084;5.412;2023-09-30T04:37:13;18.40;62.10
66190;DHT22;52992;52.084;5.412;2023-09-30T04:39:40;18.40;62.10
66190;DHT22;52992;52.084;5.412;2023-09-30T04:42:07;18.30;62.00
66190;DHT22;52992;52.084;5.412;2023-09-30T04:44:38;18.30;62.00
66190;DHT22;52992;52.084;5.412;2023-09-30T04:47:05;18.30;62.10
66190;DHT22;52992;52.084;5.412;2023-09-30T04:49:32;18.30;62.10
66190;DHT22;52992;52.084;5.412;2023-09-30T04:51:59;18.30;62.10
66190;DHT22;52992;52.084;5.412;2023-09-30T04:54:26;18.30;62.10
66190;DHT22;52992;52.084;5.412;2023-09-30T04:56:56;18.30;62.10
66190;DHT22;52992;52.084;5.412;2023-09-30T04:59:23;18.30;62.20
66190;DHT22;52992;52.084;5.412;2023-09-30T05:01:51;18.30;62.20
66190;DHT22;52992;52.084;5.412;2023-09-30T05:04:18;18.30;62.20
66190;DHT22;52992;52.084;5.412;2023-09-30T05:06:45;18.30;62.10
66190;DHT22;52992;52.084;5.412;2023-09-30T05:09:12;18.30;62.20
66190;DHT22;52992;52.084;5.412;2023-09-30T05:11:39;18.30;62.20
66190;DHT22;52992;52.084;5.412;2023-09-30T05:14:06;18.30;62.20
66190;DHT22;52992;52.084;5.412;2023-09-30T05:16:33;18.30;62.20
66190;DHT22;52992;52.084;5.412;2023-09-30T05:19:01;18.20;62.10
66190;DHT22;52992;52.084;5.412;2023-09-30T05:21:27;18.20;62.10
66190;DHT22;52992;52.084;5.412;2023-09-30T05:23:54;18.20;62.20
66190;DHT22;52992;52.084;5.412;2023-09-30T05:26:23;18.10;62.30
66190;DHT22;52992;52.084;5.412;2023-09-30T05:28:50;18.20;62.40
66190;DHT22;52992;52.084;5.412;2023-09-30T05:31:17;18.20;62.50
66190;DHT22;52992;52.084;5.412;2023-09-30T05:33:44;18.10;62.40
66190;DHT22;52992;52.084;5.412;2023-09-30T05:36:11;18.20;62.40
66190;DHT22;52992;52.084;5.412;2023-09-30T05:38:40;18.10;62.40
66190;DHT22;52992;52.084;5.412;2023-09-30T05:41:08;18.10;62.40
66190;DHT22;52992;52.084;5.412;2023-09-30T05:43:35;18.10;62.40
66190;DHT22;52992;52.084;5.412;2023-09-30T05:46:02;18.10;62.50
66190;DHT22;52992;52.084;5.412;2023-09-30T05:48:29;18.10;62.60
66190;DHT22;52992;52.084;5.412;2023-09-30T05:50:56;18.10;62.50
66190;DHT22;52992;52.084;5.412;2023-09-30T05:53:23;18.10;62.40
66190;DHT22;52992;52.084;5.412;2023-09-30T05:55:51;18.10;62.40
66190;DHT22;52992;52.084;5.412;2023-09-30T05:58:18;18.10;62.40
66190;DHT22;52992;52.084;5.412;2023-09-30T06:00:45;18.10;62.40
66190;DHT22;52992;52.084;5.412;2023-09-30T06:03:12;18.10;62.30
66190;DHT22;52992;52.084;5.412;2023-09-30T06:05:40;18.00;62.20
66190;DHT22;52992;52.084;5.412;2023-09-30T06:08:09;18.00;62.10
66190;DHT22;52992;52.084;5.412;2023-09-30T06:10:41;18.00;62.10
66190;DHT22;52992;52.084;5.412;2023-09-30T06:13:12;18.00;62.00
66190;DHT22;52992;52.084;5.412;2023-09-30T06:15:40;18.00;62.00
66190;DHT22;52992;52.084;5.412;2023-09-30T06:18:08;18.00;62.00
66190;DHT22;52992;52.084;5.412;2023-09-30T06:20:36;18.10;62.00
66190;DHT22;52992;52.084;5.412;2023-09-30T06:23:03;18.10;62.00
66190;DHT22;52992;52.084;5.412;2023-09-30T06:25:30;18.10;61.90
66190;DHT22;52992;52.084;5.412;2023-09-30T06:27:59;18.10;61.90
66190;DHT22;52992;52.084;5.412;2023-09-30T06:30:26;18.10;62.60
66190;DHT22;52992;52.084;5.412;2023-09-30T06:32:58;18.20;61.80
66190;DHT22;52992;52.084;5.412;2023-09-30T06:35:28;18.20;61.70
66190;DHT22;52992;52.084;5.412;2023-09-30T06:37:57;18.30;61.70
66190;DHT22;52992;52.084;5.412;2023-09-30T06:40:24;18.30;61.50
66190;DHT22;52992;52.084;5.412;2023-09-30T06:42:51;18.40;61.40
66190;DHT22;52992;52.084;5.412;2023-09-30T06:45:19;18.50;61.30
66190;DHT22;52992;52.084;5.412;2023-09-30T06:47:46;18.60;61.20
66190;DHT22;52992;52.084;5.412;2023-09-30T06:50:14;18.60;61.00
66190;DHT22;52992;52.084;5.412;2023-09-30T06:52:43;18.70;60.90
66190;DHT22;52992;52.084;5.412;2023-09-30T06:55:16;18.80;60.70
66190;DHT22;52992;52.084;5.412;2023-09-30T06:57:43;19.00;60.50
66190;DHT22;52992;52.084;5.412;2023-09-30T07:00:12;19.10;60.20
66190;DHT22;52992;52.084;5.412;2023-09-30T07:02:40;19.20;59.90
66190;DHT22;52992;52.084;5.412;2023-09-30T07:05:09;19.40;59.70
66190;DHT22;52992;52.084;5.412;2023-09-30T07:07:36;19.50;59.70
66190;DHT22;52992;52.084;5.412;2023-09-30T07:10:05;19.60;59.50
66190;DHT22;52992;52.084;5.412;2023-09-30T07:12:32;19.60;59.40
66190;DHT22;52992;52.084;5.412;2023-09-30T07:15:03;19.70;59.50
66190;DHT22;52992;52.084;5.412;2023-09-30T07:17:32;19.80;59.40
66190;DHT22;52992;52.084;5.412;2023-09-30T07:19:59;19.90;59.20
66190;DHT22;52992;52.084;5.412;2023-09-30T07:22:26;20.00;58.80
66190;DHT22;52992;52.084;5.412;2023-09-30T07:25:12;20.20;58.70
66190;DHT22;52992;52.084;5.412;2023-09-30T07:27:44;20.30;58.40
66190;DHT22;52992;52.084;5.412;2023-09-30T07:30:13;20.50;58.40
66190;DHT22;52992;52.084;5.412;2023-09-30T07:32:42;20.50;58.40
66190;DHT22;52992;52.084;5.412;2023-09-30T07:35:11;20.60;58.30
66190;DHT22;52992;52.084;5.412;2023-09-30T07:37:38;20.80;58.20
66190;DHT22;52992;52.084;5.412;2023-09-30T07:40:06;20.80;58.30
66190;DHT22;52992;52.084;5.412;2023-09-30T07:42:33;20.90;58.40
66190;DHT22;52992;52.084;5.412;2023-09-30T07:45:01;21.10;58.50
66190;DHT22;52992;52.084;5.412;2023-09-30T07:47:27;21.30;58.40
66190;DHT22;52992;52.084;5.412;2023-09-30T07:49:54;21.50;58.00
66190;DHT22;52992;52.084;5.412;2023-09-30T07:52:22;21.70;57.70
66190;DHT22;52992;52.084;5.412;2023-09-30T07:54:48;21.80;57.60
66190;DHT22;52992;52.084;5.412;2023-09-30T07:57:15;22.10;57.50
66190;DHT22;52992;52.084;5.412;2023-09-30T07:59:43;22.40;57.20
66190;DHT22;52992;52.084;5.412;2023-09-30T08:02:10;22.60;56.50
66190;DHT22;52992;52.084;5.412;2023-09-30T08:04:36;22.80;56.20
66190;DHT22;52992;52.084;5.412;2023-09-30T08:07:04;23.00;55.70
66190;DHT22;52992;52.084;5.412;2023-09-30T08:09:31;23.30;55.30
66190;DHT22;52992;52.084;5.412;2023-09-30T08:11:58;23.60;54.20
66190;DHT22;52992;52.084;5.412;2023-09-30T08:14:25;23.90;52.90
66190;DHT22;52992;52.084;5.412;2023-09-30T08:16:52;24.00;51.80
66190;DHT22;52992;52.084;5.412;2023-09-30T08:19:19;24.10;51.30
66190;DHT22;52992;52.084;5.412;2023-09-30T08:21:47;24.10;50.70
66190;DHT22;52992;52.084;5.412;2023-09-30T08:24:15;24.20;50.00
66190;DHT22;52992;52.084;5.412;2023-09-30T08:26:43;24.40;49.70
66190;DHT22;52992;52.084;5.412;2023-09-30T08:29:10;24.60;48.80
66190;DHT22;52992;52.084;5.412;2023-09-30T08:31:36;24.70;48.50
66190;DHT22;52992;52.084;5.412;2023-09-30T08:34:03;24.80;48.30
66190;DHT22;52992;52.084;5.412;2023-09-30T08:36:30;24.80;48.40
66190;DHT22;52992;52.084;5.412;2023-09-30T08:38:58;24.90;48.20
66190;DHT22;52992;52.084;5.412;2023-09-30T08:41:31;25.00;48.00
66190;DHT22;52992;52.084;5.412;2023-09-30T08:44:03;25.10;47.90
66190;DHT22;52992;52.084;5.412;2023-09-30T08:46:32;25.30;47.50
66190;DHT22;52992;52.084;5.412;2023-09-30T08:49:01;25.30;47.30
66190;DHT22;52992;52.084;5.412;2023-09-30T08:51:30;25.30;47.10
66190;DHT22;52992;52.084;5.412;2023-09-30T08:53:59;25.30;47.40
66190;DHT22;52992;52.084;5.412;2023-09-30T08:56:30;25.30;47.90
66190;DHT22;52992;52.084;5.412;2023-09-30T08:59:01;25.30;48.00
66190;DHT22;52992;52.084;5.412;2023-09-30T09:01:29;25.30;48.00
66190;DHT22;52992;52.084;5.412;2023-09-30T09:03:57;25.30;47.70
66190;DHT22;52992;52.084;5.412;2023-09-30T09:06:25;25.30;47.40
66190;DHT22;52992;52.084;5.412;2023-09-30T09:08:53;25.20;47.80
66190;DHT22;52992;52.084;5.412;2023-09-30T09:11:20;25.30;47.60
66190;DHT22;52992;52.084;5.412;2023-09-30T09:13:53;25.20;48.00
66190;DHT22;52992;52.084;5.412;2023-09-30T09:16:24;25.30;48.40
66190;DHT22;52992;52.084;5.412;2023-09-30T09:18:51;25.30;48.40
66190;DHT22;52992;52.084;5.412;2023-09-30T09:21:20;25.40;48.30
66190;DHT22;52992;52.084;5.412;2023-09-30T09:23:51;25.50;48.00
66190;DHT22;52992;52.084;5.412;2023-09-30T09:26:26;25.80;47.60
66190;DHT22;52992;52.084;5.412;2023-09-30T09:28:58;25.90;47.10
66190;DHT22;52992;52.084;5.412;2023-09-30T09:31:33;26.30;46.60
66190;DHT22;52992;52.084;5.412;2023-09-30T09:34:04;26.90;44.70
66190;DHT22;52992;52.084;5.412;2023-09-30T09:36:40;27.00;44.20
66190;DHT22;52992;52.084;5.412;2023-09-30T09:39:07;26.70;44.20
66190;DHT22;52992;52.084;5.412;2023-09-30T09:41:52;26.20;45.40
66190;DHT22;52992;52.084;5.412;2023-09-30T09:44:21;25.80;46.30
66190;DHT22;52992;52.084;5.412;2023-09-30T09:46:49;25.60;47.10
66190;DHT22;52992;52.084;5.412;2023-09-30T09:49:18;25.40;48.10
66190;DHT22;52992;52.084;5.412;2023-09-30T09:51:46;25.40;48.00
66190;DHT22;52992;52.084;5.412;2023-09-30T09:54:15;25.50;47.90
66190;DHT22;52992;52.084;5.412;2023-09-30T09:56:44;25.50;48.40
66190;DHT22;52992;52.084;5.412;2023-09-30T09:59:12;25.40;48.20
66190;DHT22;52992;52.084;5.412;2023-09-30T10:01:40;25.60;48.20
66190;DHT22;52992;52.084;5.412;2023-09-30T10:04:10;26.40;45.80
66190;DHT22;52992;52.084;5.412;2023-09-30T10:06:37;27.70;41.70
66190;DHT22;52992;52.084;5.412;2023-09-30T10:09:09;28.90;38.60
66190;DHT22;52992;52.084;5.412;2023-09-30T10:11:38;29.90;36.20
66190;DHT22;52992;52.084;5.412;2023-09-30T10:14:06;30.70;34.80
66190;DHT22;52992;52.084;5.412;2023-09-30T10:19:10;31.70;31.60
66190;DHT22;52992;52.084;5.412;2023-09-30T10:21:37;32.40;30.40
66190;DHT22;52992;52.084;5.412;2023-09-30T10:40:49;30.70;33.10
66190;DHT22;52992;52.084;5.412;2023-09-30T10:43:51;29.80;34.40
66190;DHT22;52992;52.084;5.412;2023-09-30T10:48:55;30.40;32.90
66190;DHT22;52992;52.084;5.412;2023-09-30T10:51:24;29.30;34.80
66190;DHT22;52992;52.084;5.412;2023-09-30T10:53:53;28.10;37.10
66190;DHT22;52992;52.084;5.412;2023-09-30T10:56:25;27.30;39.00
66190;DHT22;52992;52.084;5.412;2023-09-30T10:58:58;26.60;40.60
66190;DHT22;52992;52.084;5.412;2023-09-30T11:01:32;27.60;38.30
66190;DHT22;52992;52.084;5.412;2023-09-30T11:04:03;29.80;33.40
66190;DHT22;52992;52.084;5.412;2023-09-30T11:06:32;31.40;30.30
66190;DHT22;52992;52.084;5.412;2023-09-30T11:09:00;31.70;30.00
66190;DHT22;52992;52.084;5.412;2023-09-30T11:11:39;31.70;30.10
66190;DHT22;52992;52.084;5.412;2023-09-30T11:14:29;31.90;30.50
66190;DHT22;52992;52.084;5.412;2023-09-30T11:16:59;31.30;31.70
66190;DHT22;52992;52.084;5.412;2023-09-30T11:19:27;30.30;33.40
66190;DHT22;52992;52.084;5.412;2023-09-30T11:21:55;28.80;36.00
66190;DHT22;52992;52.084;5.412;2023-09-30T11:24:23;27.60;38.50
66190;DHT22;52992;52.084;5.412;2023-09-30T11:26:53;26.80;40.10
66190;DHT22;52992;52.084;5.412;2023-09-30T11:29:22;26.20;41.90
66190;DHT22;52992;52.084;5.412;2023-09-30T11:31:49;25.80;42.70
66190;DHT22;52992;52.084;5.412;2023-09-30T11:34:18;26.00;41.70
66190;DHT22;52992;52.084;5.412;2023-09-30T11:36:53;26.70;39.60
66190;DHT22;52992;52.084;5.412;2023-09-30T11:39:27;27.40;37.90
66190;DHT22;52992;52.084;5.412;2023-09-30T11:41:55;27.60;36.70
66190;DHT22;52992;52.084;5.412;2023-09-30T11:44:24;27.60;36.60
66190;DHT22;52992;52.084;5.412;2023-09-30T11:46:55;27.50;36.80
66190;DHT22;52992;52.084;5.412;2023-09-30T11:49:34;27.20;37.70
66190;DHT22;52992;52.084;5.412;2023-09-30T11:52:08;26.90;38.00
66190;DHT22;52992;52.084;5.412;2023-09-30T11:54:38;26.60;38.60
66190;DHT22;52992;52.084;5.412;2023-09-30T11:57:09;26.50;38.60
66190;DHT22;52992;52.084;5.412;2023-09-30T11:59:42;26.50;38.80
66190;DHT22;52992;52.084;5.412;2023-09-30T12:02:10;26.60;38.30
66190;DHT22;52992;52.084;5.412;2023-09-30T12:04:42;26.40;39.10
66190;DHT22;52992;52.084;5.412;2023-09-30T12:07:10;26.30;39.20
66190;DHT22;52992;52.084;5.412;2023-09-30T12:09:37;26.40;39.20
66190;DHT22;52992;52.084;5.412;2023-09-30T12:12:07;26.20;40.00
66190;DHT22;52992;52.084;5.412;2023-09-30T12:14:39;26.00;40.90
66190;DHT22;52992;52.084;5.412;2023-09-30T12:17:06;26.00;40.20
66190;DHT22;52992;52.084;5.412;2023-09-30T12:19:38;26.10;39.70
66190;DHT22;52992;52.084;5.412;2023-09-30T12:22:05;26.00;39.90
66190;DHT22;52992;52.084;5.412;2023-09-30T12:24:33;26.10;39.80
66190;DHT22;52992;52.084;5.412;2023-09-30T12:27:00;26.10;39.30
66190;DHT22;52992;52.084;5.412;2023-09-30T12:29:28;25.90;39.60
66190;DHT22;52992;52.084;5.412;2023-09-30T12:31:55;26.10;38.70
66190;DHT22;52992;52.084;5.412;2023-09-30T12:34:22;26.20;38.50
66190;DHT22;52992;52.084;5.412;2023-09-30T12:36:54;26.00;39.00
66190;DHT22;52992;52.084;5.412;2023-09-30T12:39:24;25.60;39.30
66190;DHT22;52992;52.084;5.412;2023-09-30T12:41:53;25.40;39.50
66190;DHT22;52992;52.084;5.412;2023-09-30T12:44:20;25.30;39.80
66190;DHT22;52992;52.084;5.412;2023-09-30T12:46:49;25.40;39.70
66190;DHT22;52992;52.084;5.412;2023-09-30T12:49:17;25.40;39.60
66190;DHT22;52992;52.084;5.412;2023-09-30T12:51:45;25.40;40.40
66190;DHT22;52992;52.084;5.412;2023-09-30T12:54:13;25.40;40.20
66190;DHT22;52992;52.084;5.412;2023-09-30T12:56:41;25.30;40.70
66190;DHT22;52992;52.084;5.412;2023-09-30T12:59:08;25.10;41.10
66190;DHT22;52992;52.084;5.412;2023-09-30T13:01:35;24.90;41.30
66190;DHT22;52992;52.084;5.412;2023-09-30T13:04:02;24.80;41.70
66190;DHT22;52992;52.084;5.412;2023-09-30T13:06:30;24.80;41.70
66190;DHT22;52992;52.084;5.412;2023-09-30T13:08:59;24.70;41.30
66190;DHT22;52992;52.084;5.412;2023-09-30T13:11:27;24.60;41.10
66190;DHT22;52992;52.084;5.412;2023-09-30T13:13:54;24.60;41.40
66190;DHT22;52992;52.084;5.412;2023-09-30T13:16:21;24.50;41.60
66190;DHT22;52992;52.084;5.412;2023-09-30T13:18:49;24.40;41.40
66190;DHT22;52992;52.084;5.412;2023-09-30T13:21:17;24.40;41.50
66190;DHT22;52992;52.084;5.412;2023-09-30T13:23:44;24.30;42.80
66190;DHT22;52992;52.084;5.412;2023-09-30T13:26:12;24.20;42.10
66190;DHT22;52992;52.084;5.412;2023-09-30T13:28:39;24.20;42.40
66190;DHT22;52992;52.084;5.412;2023-09-30T13:31:06;24.20;42.50
66190;DHT22;52992;52.084;5.412;2023-09-30T13:33:34;24.20;42.30
66190;DHT22;52992;52.084;5.412;2023-09-30T13:36:01;24.20;42.60
66190;DHT22;52992;52.084;5.412;2023-09-30T13:38:29;24.20;42.50
66190;DHT22;52992;52.084;5.412;2023-09-30T13:40:56;24.20;42.00
66190;DHT22;52992;52.084;5.412;2023-09-30T13:43:23;24.20;42.10
66190;DHT22;52992;52.084;5.412;2023-09-30T13:45:50;24.40;42.00
66190;DHT22;52992;52.084;5.412;2023-09-30T13:48:17;24.40;41.60
66190;DHT22;52992;52.084;5.412;2023-09-30T13:50:44;24.60;41.50
66190;DHT22;52992;52.084;5.412;2023-09-30T13:53:11;24.60;41.20
66190;DHT22;52992;52.084;5.412;2023-09-30T13:55:38;24.60;41.50
66190;DHT22;52992;52.084;5.412;2023-09-30T13:58:06;24.50;41.80
66190;DHT22;52992;52.084;5.412;2023-09-30T14:00:33;24.40;42.00
66190;DHT22;52992;52.084;5.412;2023-09-30T14:03:00;24.40;42.40
66190;DHT22;52992;52.084;5.412;2023-09-30T14:05:27;24.30;42.70
66190;DHT22;52992;52.084;5.412;2023-09-30T14:07:54;24.30;43.60
66190;DHT22;52992;52.084;5.412;2023-09-30T14:10:21;24.20;44.00
66190;DHT22;52992;52.084;5.412;2023-09-30T14:12:48;24.10;44.30
66190;DHT22;52992;52.084;5.412;2023-09-30T14:15:15;23.90;44.20
66190;DHT22;52992;52.084;5.412;2023-09-30T14:17:42;23.90;44.30
66190;DHT22;52992;52.084;5.412;2023-09-30T14:20:09;24.00;44.30
66190;DHT22;52992;52.084;5.412;2023-09-30T14:22:39;23.90;44.60
66190;DHT22;52992;52.084;5.412;2023-09-30T14:25:06;24.00;44.20
66190;DHT22;52992;52.084;5.412;2023-09-30T14:27:34;24.00;44.20
66190;DHT22;52992;52.084;5.412;2023-09-30T14:30:01;24.00;44.20
66190;DHT22;52992;52.084;5.412;2023-09-30T14:32:28;24.00;44.80
66190;DHT22;52992;52.084;5.412;2023-09-30T14:34:55;24.00;45.30
66190;DHT22;52992;52.084;5.412;2023-09-30T14:37:23;24.00;45.30
66190;DHT22;52992;52.084;5.412;2023-09-30T14:39:50;23.90;45.30
66190;DHT22;52992;52.084;5.412;2023-09-30T14:42:17;23.90;45.50
66190;DHT22;52992;52.084;5.412;2023-09-30T14:44:44;23.90;45.40
66190;DHT22;52992;52.084;5.412;2023-09-30T14:47:11;23.80;45.30
66190;DHT22;52992;52.084;5.412;2023-09-30T14:49:38;23.80;45.00
66190;DHT22;52992;52.084;5.412;2023-09-30T14:52:05;23.80;45.60
66190;DHT22;52992;52.084;5.412;2023-09-30T14:54:32;23.80;45.60
66190;DHT22;52992;52.084;5.412;2023-09-30T14:56:59;23.90;45.90
66190;DHT22;52992;52.084;5.412;2023-09-30T14:59:26;23.90;46.00
66190;DHT22;52992;52.084;5.412;2023-09-30T15:01:53;24.00;45.70
66190;DHT22;52992;52.084;5.412;2023-09-30T15:04:20;24.00;45.80
66190;DHT22;52992;52.084;5.412;2023-09-30T15:06:47;24.00;45.20
66190;DHT22;52992;52.084;5.412;2023-09-30T15:09:14;23.90;45.10
66190;DHT22;52992;52.084;5.412;2023-09-30T15:11:41;23.90;45.20
66190;DHT22;52992;52.084;5.412;2023-09-30T15:14:08;23.90;45.30
66190;DHT22;52992;52.084;5.412;2023-09-30T15:16:35;23.80;45.40
66190;DHT22;52992;52.084;5.412;2023-09-30T15:19:02;23.80;45.70
66190;DHT22;52992;52.084;5.412;2023-09-30T15:21:29;23.70;45.50
66190;DHT22;52992;52.084;5.412;2023-09-30T15:23:57;23.70;45.60
66190;DHT22;52992;52.084;5.412;2023-09-30T15:26:24;23.60;46.50
66190;DHT22;52992;52.084;5.412;2023-09-30T15:28:51;23.50;45.80
66190;DHT22;52992;52.084;5.412;2023-09-30T15:31:18;23.50;46.10
66190;DHT22;52992;52.084;5.412;2023-09-30T15:33:46;23.40;46.20
66190;DHT22;52992;52.084;5.412;2023-09-30T15:36:14;23.40;46.30
66190;DHT22;52992;52.084;5.412;2023-09-30T15:38:44;23.30;46.30
66190;DHT22;52992;52.084;5.412;2023-09-30T15:41:14;23.40;46.60
66190;DHT22;52992;52.084;5.412;2023-09-30T15:43:41;23.40;46.80
66190;DHT22;52992;52.084;5.412;2023-09-30T15:46:09;23.40;46.90
66190;DHT22;52992;52.084;5.412;2023-09-30T15:48:37;23.50;47.00
66190;DHT22;52992;52.084;5.412;2023-09-30T15:51:04;23.50;47.10
66190;DHT22;52992;52.084;5.412;2023-09-30T15:53:32;23.50;47.20
66190;DHT22;52992;52.084;5.412;2023-09-30T15:56:03;23.50;47.30
66190;DHT22;52992;52.084;5.412;2023-09-30T15:58:30;23.50;47.40